createdAt,value
2022-10-29T00:00:49.748Z,1.90
2022-10-29T00:03:16.857Z,2.03
2022-10-29T00:05:43.705Z,1.90
2022-10-29T00:08:10.606Z,1.97
2022-10-29T00:10:38.242Z,2.03
2022-10-29T00:13:05.142Z,2.10
2022-10-29T00:15:32.036Z,1.73
2022-10-29T00:17:59.124Z,1.90
2022-10-29T00:20:26.177Z,1.90
2022-10-29T00:22:55.166Z,2.10
2022-10-29T00:25:22.615Z,2.10
2022-10-29T00:27:49.383Z,2.23
2022-10-29T00:30:16.275Z,1.97
2022-10-29T00:32:43.172Z,2.33
2022-10-29T00:35:09.978Z,1.90
2022-10-29T00:37:36.790Z,2.20
2022-10-29T00:40:04.976Z,1.80
2022-10-29T00:42:31.752Z,2.17
2022-10-29T00:44:58.599Z,2.20
2022-10-29T00:47:30.759Z,2.03
2022-10-29T00:50:05.218Z,2.30
2022-10-29T00:52:36.502Z,1.97
2022-10-29T00:55:06.998Z,1.90
2022-10-29T00:57:38.697Z,1.70
2022-10-29T01:00:06.685Z,1.50
2022-10-29T01:02:36.384Z,1.70
2022-10-29T01:05:05.470Z,1.70
2022-10-29T01:07:32.537Z,1.70
2022-10-29T01:09:59.483Z,1.87
2022-10-29T01:12:57.597Z,1.80
2022-10-29T01:15:49.776Z,1.60
2022-10-29T01:18:40.977Z,1.70
2022-10-29T01:21:13.809Z,2.10
2022-10-29T01:24:11.685Z,1.50
2022-10-29T01:27:16.199Z,1.63
2022-10-29T01:29:52.268Z,2.13
2022-10-29T01:32:31.012Z,1.70
2022-10-29T01:35:06.300Z,2.13
2022-10-29T01:37:39.784Z,1.60
2022-10-29T01:40:22.024Z,1.97
2022-10-29T01:42:59.450Z,1.83
2022-10-29T01:45:33.596Z,1.70
2022-10-29T01:48:09.398Z,1.90
2022-10-29T01:50:39.473Z,1.97
2022-10-29T01:53:07.148Z,1.80
2022-10-29T01:55:35.366Z,2.13
2022-10-29T01:58:04.186Z,1.90
2022-10-29T02:00:54.709Z,1.80
2022-10-29T02:03:49.148Z,2.00
2022-10-29T02:07:00.326Z,1.77
2022-10-29T02:09:46.838Z,1.80
2022-10-29T02:12:23.671Z,1.80
2022-10-29T02:14:59.915Z,1.57
2022-10-29T02:17:26.912Z,1.77
2022-10-29T02:19:53.670Z,1.70
2022-10-29T02:22:20.692Z,1.60
2022-10-29T02:24:47.613Z,1.60
2022-10-29T02:27:14.818Z,1.90
2022-10-29T02:29:41.575Z,1.70
2022-10-29T02:32:08.334Z,1.60
2022-10-29T02:34:35.074Z,1.57
2022-10-29T02:37:01.902Z,1.60
2022-10-29T02:39:28.807Z,1.33
2022-10-29T02:41:55.640Z,1.60
2022-10-29T02:44:22.465Z,1.50
2022-10-29T02:46:49.344Z,1.50
2022-10-29T02:49:16.328Z,1.50
2022-10-29T02:51:43.127Z,1.27
2022-10-29T02:54:09.968Z,1.20
2022-10-29T02:56:36.699Z,1.40
2022-10-29T02:59:05.344Z,1.40
2022-10-29T03:01:34.753Z,1.20
2022-10-29T03:04:01.579Z,1.17
2022-10-29T03:06:29.098Z,1.13
2022-10-29T03:08:55.955Z,1.00
2022-10-29T03:11:22.756Z,1.10
2022-10-29T03:13:49.505Z,1.00
2022-10-29T03:16:16.319Z,1.10
2022-10-29T03:18:43.133Z,1.37
2022-10-29T03:21:10.042Z,1.40
2022-10-29T03:23:37.038Z,1.40
2022-10-29T03:26:04.146Z,1.30
2022-10-29T03:28:31.266Z,1.43
2022-10-29T03:30:58.814Z,1.33
2022-10-29T03:33:26.705Z,1.70
2022-10-29T03:36:01.217Z,1.80
2022-10-29T03:38:28.239Z,1.93
2022-10-29T03:40:55.105Z,2.30
2022-10-29T03:43:22.513Z,2.60
2022-10-29T03:45:54.560Z,2.93
2022-10-29T03:48:22.372Z,3.50
2022-10-29T03:51:06.010Z,3.10
2022-10-29T03:53:34.166Z,2.80
2022-10-29T03:56:01.158Z,2.40
2022-10-29T03:58:28.580Z,2.60
2022-10-29T04:01:00.637Z,2.17
2022-10-29T04:03:29.875Z,1.80
2022-10-29T04:05:57.252Z,1.70
2022-10-29T04:08:24.182Z,1.67
2022-10-29T04:10:51.904Z,1.83
2022-10-29T04:13:19.572Z,1.97
2022-10-29T04:15:46.749Z,1.97
2022-10-29T04:18:14.208Z,2.00
2022-10-29T04:21:31.292Z,2.10
2022-10-29T04:29:03.654Z,2.33
2022-10-29T04:31:31.043Z,2.87
2022-10-29T04:33:57.864Z,2.50
2022-10-29T04:36:24.730Z,2.93
2022-10-29T04:38:51.907Z,2.03
2022-10-29T04:41:18.782Z,2.23
2022-10-29T04:43:45.804Z,1.80
2022-10-29T04:46:12.826Z,2.10
2022-10-29T04:48:39.762Z,2.50
2022-10-29T04:51:06.728Z,2.50
2022-10-29T04:53:33.559Z,2.93
2022-10-29T04:56:01.823Z,3.40
2022-10-29T04:58:28.851Z,3.40
2022-10-29T05:01:02.688Z,3.70
2022-10-29T05:03:29.759Z,3.20
2022-10-29T05:05:56.586Z,3.17
2022-10-29T05:08:23.543Z,3.70
2022-10-29T05:10:50.729Z,3.60
2022-10-29T05:13:17.608Z,3.30
2022-10-29T05:15:53.299Z,3.83
2022-10-29T05:18:21.028Z,3.70
2022-10-29T05:20:48.232Z,3.40
2022-10-29T05:23:15.490Z,3.80
2022-10-29T05:25:42.420Z,3.40
2022-10-29T05:28:14.722Z,3.43
2022-10-29T05:30:42.009Z,3.50
2022-10-29T05:33:10.286Z,3.53
2022-10-29T05:35:37.407Z,4.13
2022-10-29T05:38:05.154Z,3.23
2022-10-29T05:40:32.375Z,3.30
2022-10-29T05:43:00.031Z,3.23
2022-10-29T05:45:27.344Z,3.27
2022-10-29T05:48:01.796Z,3.27
2022-10-29T05:50:29.969Z,2.90
2022-10-29T05:52:57.710Z,2.37
2022-10-29T05:55:25.922Z,2.70
2022-10-29T05:57:57.455Z,2.80
2022-10-29T06:00:25.294Z,2.80
2022-10-29T06:02:52.976Z,2.93
2022-10-29T06:05:20.044Z,2.90
2022-10-29T06:07:46.969Z,2.60
2022-10-29T06:10:13.860Z,2.50
2022-10-29T06:12:40.651Z,2.60
2022-10-29T06:15:07.970Z,3.00
2022-10-29T06:17:34.760Z,2.40
2022-10-29T06:20:01.771Z,2.70
2022-10-29T06:22:28.591Z,2.67
2022-10-29T06:24:55.576Z,2.80
2022-10-29T06:27:22.450Z,2.70
2022-10-29T06:29:49.331Z,3.00
2022-10-29T06:32:16.514Z,2.77
2022-10-29T06:34:43.476Z,2.67
2022-10-29T06:37:10.325Z,2.93
2022-10-29T06:39:37.335Z,2.83
2022-10-29T06:42:04.372Z,3.07
2022-10-29T06:44:31.196Z,3.13
2022-10-29T06:46:58.172Z,3.10
2022-10-29T06:49:25.126Z,3.33
2022-10-29T06:51:52.139Z,3.13
2022-10-29T06:54:19.021Z,2.33
2022-10-29T06:56:45.926Z,2.60
2022-10-29T06:59:12.703Z,2.50
2022-10-29T07:01:39.801Z,2.93
2022-10-29T07:04:08.003Z,2.80
2022-10-29T07:06:34.888Z,2.70
2022-10-29T07:09:01.858Z,2.57
2022-10-29T07:11:28.796Z,2.63
2022-10-29T07:13:55.637Z,2.90
2022-10-29T07:16:22.555Z,2.97
2022-10-29T07:18:49.380Z,3.20
2022-10-29T07:21:16.153Z,2.60
2022-10-29T07:23:43.182Z,3.20
2022-10-29T07:26:10.250Z,2.63
2022-10-29T07:28:37.054Z,2.90
2022-10-29T07:31:04.113Z,3.17
2022-10-29T07:33:31.224Z,3.00
2022-10-29T07:35:59.154Z,2.87
2022-10-29T07:38:26.982Z,3.30
2022-10-29T07:40:54.654Z,3.00
2022-10-29T07:43:22.512Z,2.83
2022-10-29T07:45:52.313Z,3.07
2022-10-29T07:48:21.476Z,3.20
2022-10-29T07:50:49.286Z,3.20
2022-10-29T07:53:16.434Z,3.20
2022-10-29T07:55:43.268Z,3.27
2022-10-29T07:58:12.445Z,3.40
2022-10-29T08:00:41.184Z,3.07
2022-10-29T08:03:10.143Z,3.67
2022-10-29T08:05:36.926Z,3.30
2022-10-29T08:08:05.769Z,3.67
2022-10-29T08:10:34.490Z,3.40
2022-10-29T08:13:03.470Z,2.93
2022-10-29T08:15:31.979Z,3.57
2022-10-29T08:17:59.998Z,3.80
2022-10-29T08:20:28.678Z,3.87
2022-10-29T08:22:55.989Z,4.17
2022-10-29T08:25:23.232Z,4.70
2022-10-29T08:28:01.325Z,4.77
2022-10-29T08:30:28.545Z,4.97
2022-10-29T08:32:55.732Z,5.63
2022-10-29T08:35:22.875Z,5.80
2022-10-29T08:37:49.874Z,6.27
2022-10-29T08:40:31.064Z,6.23
2022-10-29T08:43:13.046Z,7.23
2022-10-29T08:45:47.284Z,7.27
2022-10-29T08:48:24.763Z,7.00
2022-10-29T08:50:59.665Z,6.90
2022-10-29T08:53:35.306Z,7.47
2022-10-29T08:56:06.603Z,7.00
2022-10-29T08:58:48.368Z,6.80
2022-10-29T09:01:15.854Z,8.07
2022-10-29T09:03:42.818Z,7.83
2022-10-29T09:06:36.787Z,8.27
2022-10-29T09:09:24.689Z,6.97
2022-10-29T09:12:03.820Z,7.20
2022-10-29T09:14:59.245Z,7.90
2022-10-29T09:17:39.796Z,6.93
2022-10-29T09:20:15.463Z,6.93
2022-10-29T09:22:48.582Z,6.57
2022-10-29T09:25:54.087Z,6.90
2022-10-29T09:29:06.887Z,7.17
2022-10-29T09:31:55.464Z,6.80
2022-10-29T09:34:41.090Z,7.83
2022-10-29T09:37:17.581Z,7.17
2022-10-29T09:39:48.168Z,8.00
2022-10-29T09:42:23.155Z,7.70
2022-10-29T09:44:59.214Z,7.27
2022-10-29T09:47:42.296Z,7.17
2022-10-29T09:50:12.028Z,7.73
2022-10-29T09:52:43.824Z,7.87
2022-10-29T09:55:53.681Z,7.60
2022-10-29T09:58:23.727Z,8.27
2022-10-29T10:00:51.990Z,7.60
2022-10-29T10:03:22.709Z,7.50
2022-10-29T10:06:02.605Z,7.87
2022-10-29T10:08:31.910Z,8.37
2022-10-29T10:11:04.799Z,7.23
2022-10-29T10:13:36.354Z,7.57
2022-10-29T10:16:06.185Z,7.00
2022-10-29T10:18:33.083Z,8.00
2022-10-29T10:21:05.373Z,7.73
2022-10-29T10:23:52.591Z,7.97
2022-10-29T10:26:31.866Z,7.50
2022-10-29T10:29:22.274Z,8.20
2022-10-29T10:31:51.240Z,7.60
2022-10-29T10:34:20.811Z,7.30
2022-10-29T10:36:52.020Z,8.07
2022-10-29T10:39:27.249Z,7.53
2022-10-29T10:41:56.006Z,6.83
2022-10-29T10:44:23.523Z,7.13
2022-10-29T10:46:54.513Z,7.57
2022-10-29T10:49:34.007Z,7.00
2022-10-29T10:52:04.773Z,7.20
2022-10-29T10:54:37.388Z,7.57
2022-10-29T10:57:19.514Z,7.03
2022-10-29T11:00:00.620Z,8.07
2022-10-29T11:02:42.553Z,7.07
2022-10-29T11:05:17.228Z,7.80
2022-10-29T11:07:55.263Z,6.63
2022-10-29T11:10:31.339Z,6.67
2022-10-29T11:13:05.215Z,6.37
2022-10-29T11:16:01.143Z,6.83
2022-10-29T11:18:36.713Z,7.27
2022-10-29T11:21:14.523Z,6.07
2022-10-29T11:24:08.900Z,7.00
2022-10-29T11:26:48.703Z,6.47
2022-10-29T11:29:26.489Z,6.00
2022-10-29T11:32:06.786Z,5.80
2022-10-29T11:34:59.905Z,5.57
2022-10-29T11:37:38.311Z,5.77
2022-10-29T11:40:21.955Z,6.07
2022-10-29T11:42:48.943Z,6.17
2022-10-29T11:45:34.094Z,6.73
2022-10-29T11:48:09.847Z,6.30
2022-10-29T11:50:45.105Z,6.17
2022-10-29T11:53:33.207Z,5.93
2022-10-29T11:56:10.701Z,6.70
2022-10-29T11:58:54.567Z,6.83
2022-10-29T12:01:47.583Z,5.70
2022-10-29T12:04:24.541Z,6.87
2022-10-29T12:07:00.324Z,6.33
2022-10-29T12:09:55.128Z,6.27
2022-10-29T12:12:28.003Z,5.90
2022-10-29T12:15:19.656Z,6.87
2022-10-29T12:18:25.947Z,7.40
2022-10-29T12:20:58.876Z,6.90
2022-10-29T12:23:55.148Z,5.43
2022-10-29T12:26:31.903Z,5.73
2022-10-29T12:29:19.553Z,5.90
2022-10-29T12:32:10.295Z,6.10
2022-10-29T12:34:42.081Z,5.67
2022-10-29T12:37:24.695Z,6.13
2022-10-29T12:40:00.436Z,5.63
2022-10-29T12:42:30.274Z,6.33
2022-10-29T12:45:12.841Z,5.93
2022-10-29T12:47:44.258Z,5.50
2022-10-29T12:50:45.371Z,5.30
2022-10-29T12:53:26.884Z,6.33
2022-10-29T12:55:55.573Z,6.30
2022-10-29T12:58:48.944Z,6.20
2022-10-29T13:01:57.176Z,5.90
2022-10-29T13:04:31.982Z,6.13
2022-10-29T13:10:26.182Z,6.13
2022-10-29T13:12:59.271Z,5.90
2022-10-29T13:15:34.412Z,5.87
2022-10-29T13:18:09.154Z,6.13
2022-10-29T13:20:40.804Z,5.73
2022-10-29T13:23:22.821Z,6.40
2022-10-29T13:25:57.145Z,6.17
2022-10-29T13:28:24.013Z,6.20
2022-10-29T13:31:04.357Z,6.00
2022-10-29T13:33:31.391Z,5.60
2022-10-29T13:35:58.981Z,6.10
2022-10-29T13:38:58.539Z,5.77
2022-10-29T13:41:44.318Z,5.63
2022-10-29T13:44:17.322Z,5.43
2022-10-29T13:46:49.511Z,6.10
2022-10-29T13:49:41.714Z,6.23
2022-10-29T13:52:21.996Z,5.67
2022-10-29T13:54:58.123Z,5.60
2022-10-29T13:57:55.114Z,4.47
2022-10-29T14:00:22.650Z,5.10
2022-10-29T14:03:15.945Z,4.93
2022-10-29T14:05:49.478Z,5.00
2022-10-29T14:08:24.981Z,4.87
2022-10-29T14:10:59.641Z,4.87
2022-10-29T14:13:41.114Z,5.43
2022-10-29T14:16:08.089Z,4.70
2022-10-29T14:18:40.920Z,5.07
2022-10-29T14:21:15.968Z,5.50
2022-10-29T14:23:55.905Z,5.00
2022-10-29T14:26:24.824Z,5.70
2022-10-29T14:28:52.729Z,6.03
2022-10-29T14:31:25.985Z,6.13
2022-10-29T14:33:58.584Z,5.53
2022-10-29T14:36:35.220Z,5.73
2022-10-29T14:39:17.547Z,5.50
2022-10-29T14:41:47.622Z,5.20
2022-10-29T14:44:29.219Z,5.10
2022-10-29T14:47:26.607Z,5.00
2022-10-29T14:49:57.374Z,5.17
2022-10-29T14:52:27.136Z,5.73
2022-10-29T14:54:56.052Z,5.47
2022-10-29T14:57:25.551Z,5.33
2022-10-29T15:00:04.784Z,5.83
2022-10-29T15:02:42.869Z,5.20
2022-10-29T15:05:28.296Z,5.07
2022-10-29T15:08:16.665Z,5.33
2022-10-29T15:10:48.258Z,5.27
2022-10-29T15:13:32.378Z,5.30
2022-10-29T15:16:05.991Z,5.67
2022-10-29T15:18:35.023Z,5.60
2022-10-29T15:21:02.578Z,5.63
2022-10-29T15:23:35.622Z,5.73
2022-10-29T15:26:08.933Z,6.10
2022-10-29T15:28:45.236Z,5.27
2022-10-29T15:31:33.578Z,5.73
2022-10-29T15:34:08.766Z,6.13
2022-10-29T15:37:20.738Z,5.50
2022-10-29T15:39:59.553Z,6.10
2022-10-29T15:42:32.309Z,5.33
2022-10-29T15:45:08.579Z,5.73
2022-10-29T15:47:37.883Z,5.27
2022-10-29T15:50:06.735Z,5.47
2022-10-29T15:52:38.907Z,5.30
2022-10-29T15:55:26.242Z,4.80
2022-10-29T15:57:55.988Z,4.73
2022-10-29T16:00:23.619Z,4.93
2022-10-29T16:02:51.759Z,5.53
2022-10-29T16:05:19.039Z,5.33
2022-10-29T16:07:47.587Z,5.33
2022-10-29T16:10:18.263Z,5.53
2022-10-29T16:12:45.904Z,5.20
2022-10-29T16:15:14.806Z,6.07
2022-10-29T16:17:41.851Z,5.20
2022-10-29T16:20:13.536Z,5.77
2022-10-29T16:22:40.455Z,5.40
2022-10-29T16:25:19.981Z,5.47
2022-10-29T16:27:47.264Z,5.20
2022-10-29T16:30:14.125Z,6.10
2022-10-29T16:32:41.928Z,5.93
2022-10-29T16:35:24.855Z,7.87
2022-10-29T16:37:53.468Z,9.60
2022-10-29T16:40:22.166Z,8.40
2022-10-29T16:42:49.268Z,6.60
2022-10-29T16:45:23.613Z,5.63
2022-10-29T16:47:53.682Z,5.93
2022-10-29T16:50:25.964Z,6.33
2022-10-29T16:53:12.574Z,5.83
2022-10-29T16:55:40.865Z,6.70
2022-10-29T16:58:15.911Z,6.23
2022-10-29T17:00:42.873Z,6.83
2022-10-29T17:03:12.526Z,6.10
2022-10-29T17:05:42.375Z,6.47
2022-10-29T17:08:09.596Z,6.10
2022-10-29T17:10:37.377Z,6.60
2022-10-29T17:13:07.284Z,5.60
2022-10-29T17:15:34.086Z,5.97
2022-10-29T17:18:01.263Z,6.10
2022-10-29T17:20:28.771Z,5.70
2022-10-29T17:22:55.664Z,6.13
2022-10-29T17:25:22.528Z,6.23
2022-10-29T17:27:49.563Z,6.30
2022-10-29T17:30:16.589Z,5.70
2022-10-29T17:32:43.352Z,5.90
2022-10-29T17:35:10.421Z,5.60
2022-10-29T17:37:37.264Z,5.63
2022-10-29T17:40:07.913Z,6.40
2022-10-29T17:42:35.610Z,6.77
2022-10-29T17:45:02.687Z,6.77
2022-10-29T17:47:30.205Z,5.90
2022-10-29T17:49:57.380Z,6.37
2022-10-29T17:52:24.236Z,5.87
2022-10-29T17:54:50.982Z,6.60
2022-10-29T17:57:17.969Z,5.77
2022-10-29T17:59:44.870Z,6.37
2022-10-29T18:02:11.922Z,6.13
2022-10-29T18:04:39.123Z,6.37
2022-10-29T18:07:06.058Z,6.17
2022-10-29T18:09:32.854Z,5.93
2022-10-29T18:12:00.053Z,5.90
2022-10-29T18:14:26.892Z,5.87
2022-10-29T18:16:53.683Z,6.00
2022-10-29T18:19:20.834Z,6.73
2022-10-29T18:21:47.685Z,6.57
2022-10-29T18:24:14.497Z,6.67
2022-10-29T18:26:41.490Z,6.27
2022-10-29T18:29:11.888Z,5.87
2022-10-29T18:31:42.418Z,6.03
2022-10-29T18:34:09.597Z,6.60
2022-10-29T18:36:37.090Z,6.80
2022-10-29T18:39:05.468Z,6.20
2022-10-29T18:41:32.729Z,6.30
2022-10-29T18:44:00.084Z,7.17
2022-10-29T18:46:27.657Z,7.20
2022-10-29T18:48:54.564Z,6.73
2022-10-29T18:51:29.580Z,6.63
2022-10-29T18:54:00.437Z,6.57
2022-10-29T18:56:28.418Z,5.37
2022-10-29T18:58:56.867Z,5.90
2022-10-29T19:01:33.017Z,6.07
2022-10-29T19:04:05.530Z,6.40
2022-10-29T19:06:35.307Z,5.63
2022-10-29T19:09:06.105Z,6.33
2022-10-29T19:11:33.210Z,6.97
2022-10-29T19:14:02.554Z,6.63
2022-10-29T19:16:31.398Z,7.03
2022-10-29T19:19:07.402Z,6.37
2022-10-29T19:21:36.542Z,6.53
2022-10-29T19:24:04.501Z,6.63
2022-10-29T19:26:33.764Z,5.93
2022-10-29T19:29:03.349Z,5.63
2022-10-29T19:31:31.556Z,5.70
2022-10-29T19:34:00.821Z,5.63
2022-10-29T19:36:29.536Z,6.13
2022-10-29T19:38:57.022Z,6.30
2022-10-29T19:41:24.276Z,6.47
2022-10-29T19:43:51.490Z,6.30
2022-10-29T19:46:24.360Z,6.60
2022-10-29T19:48:53.575Z,5.83
2022-10-29T19:51:21.780Z,6.03
2022-10-29T19:53:51.684Z,6.13
2022-10-29T19:56:19.801Z,6.13
2022-10-29T19:58:46.965Z,6.27
2022-10-29T20:01:18.827Z,6.70
2022-10-29T20:03:47.338Z,6.17
2022-10-29T20:06:15.109Z,6.17
2022-10-29T20:08:42.501Z,7.13
2022-10-29T20:11:09.641Z,6.23
2022-10-29T20:13:36.832Z,6.47
2022-10-29T20:16:16.861Z,5.63
2022-10-29T20:18:43.888Z,6.83
2022-10-29T20:21:10.718Z,6.37
2022-10-29T20:23:38.308Z,5.83
2022-10-29T20:26:06.297Z,5.50
2022-10-29T20:28:33.548Z,6.07
2022-10-29T20:31:11.718Z,6.43
2022-10-29T20:33:38.701Z,5.73
2022-10-29T20:36:05.799Z,5.97
2022-10-29T20:38:32.792Z,6.80
2022-10-29T20:40:59.866Z,6.47
2022-10-29T20:43:28.505Z,6.43
2022-10-29T20:46:02.768Z,6.57
2022-10-29T20:48:30.327Z,6.40
2022-10-29T20:50:57.242Z,6.40
2022-10-29T20:53:24.234Z,6.33
2022-10-29T20:55:52.038Z,6.73
2022-10-29T20:58:20.010Z,6.37
2022-10-29T21:00:48.083Z,6.47
2022-10-29T21:03:15.962Z,6.20
2022-10-29T21:05:43.038Z,6.67
2022-10-29T21:08:10.766Z,6.20
2022-10-29T21:10:37.612Z,6.20
2022-10-29T21:13:04.736Z,6.40
2022-10-29T21:15:35.938Z,6.10
2022-10-29T21:18:02.814Z,6.30
2022-10-29T21:20:29.603Z,6.50
2022-10-29T21:22:56.667Z,6.10
2022-10-29T21:25:23.650Z,5.70
2022-10-29T21:27:54.070Z,5.87
2022-10-29T21:30:21.734Z,6.70
2022-10-29T21:32:48.546Z,5.47
2022-10-29T21:35:15.723Z,6.47
2022-10-29T21:37:43.792Z,6.30
2022-10-29T21:40:10.980Z,6.60
2022-10-29T21:42:38.159Z,6.03
2022-10-29T21:45:05.621Z,6.13
2022-10-29T21:47:32.450Z,6.50
2022-10-29T21:49:59.555Z,6.13
2022-10-29T21:52:26.632Z,6.20
2022-10-29T21:54:53.409Z,5.77
2022-10-29T21:57:20.455Z,6.47
2022-10-29T21:59:47.390Z,5.53
2022-10-29T22:02:14.224Z,6.47
2022-10-29T22:04:41.176Z,6.67
2022-10-29T22:07:09.358Z,6.20
2022-10-29T22:09:36.203Z,5.77
2022-10-29T22:12:03.148Z,6.37
2022-10-29T22:14:29.913Z,6.67
2022-10-29T22:16:57.871Z,6.07
2022-10-29T22:19:25.049Z,6.03
2022-10-29T22:21:54.155Z,6.03
2022-10-29T22:24:20.985Z,5.57
2022-10-29T22:26:48.021Z,6.30
2022-10-29T22:29:14.762Z,5.97
2022-10-29T22:31:41.673Z,5.80
2022-10-29T22:34:08.454Z,6.83
2022-10-29T22:36:35.405Z,6.37
2022-10-29T22:39:02.461Z,6.43
2022-10-29T22:41:29.860Z,6.23
2022-10-29T22:44:00.779Z,5.80
2022-10-29T22:46:29.131Z,6.00
2022-10-29T22:48:56.461Z,5.83
2022-10-29T22:51:27.982Z,5.83
2022-10-29T22:53:55.354Z,5.80
2022-10-29T22:56:27.103Z,5.87
2022-10-29T22:58:54.339Z,5.73
2022-10-29T23:01:23.810Z,5.67
2022-10-29T23:03:51.500Z,5.40
2022-10-29T23:06:20.774Z,5.77
2022-10-29T23:08:48.389Z,5.50
2022-10-29T23:11:19.719Z,5.77
2022-10-29T23:13:47.480Z,5.97
2022-10-29T23:16:14.489Z,6.50
2022-10-29T23:18:41.495Z,5.33
2022-10-29T23:21:08.998Z,5.63
2022-10-29T23:23:36.450Z,5.70
2022-10-29T23:26:04.196Z,5.80
2022-10-29T23:28:33.258Z,5.93
2022-10-29T23:31:01.885Z,6.30
2022-10-29T23:33:30.209Z,6.40
2022-10-29T23:36:05.007Z,6.13
2022-10-29T23:38:32.383Z,5.77
2022-10-29T23:40:59.246Z,5.77
2022-10-29T23:43:26.701Z,6.23
2022-10-29T23:45:53.728Z,6.30
2022-10-29T23:48:20.668Z,5.70
2022-10-29T23:50:47.856Z,5.80
2022-10-29T23:53:14.982Z,5.90
2022-10-29T23:55:42.962Z,6.00
2022-10-29T23:58:10.358Z,5.50
